Time,TemperatureF,DewpointF,PressureIn,WindDirection,WindDirectionDegrees,WindSpeedMPH,WindSpeedGustMPH,Humidity,HourlyPrecipIn,Conditions,Clouds,dailyrainin,SoftwareType,DateUTC
2013-03-28 07:50:00,37.0,33.0,29.55,West,270,4.0,4.0,85,0.00,,,0.01,Rainwise IP-100,2013-03-28 11:50:00,
2013-03-28 07:51:00,37.0,33.0,29.55,North,360,4.0,6.0,85,0.06,,,0.01,Rainwise IP-100,2013-03-28 11:51:00,
2013-03-28 07:56:00,37.0,33.0,29.55,North,360,5.0,5.0,85,0.06,,,0.01,Rainwise IP-100,2013-03-28 11:56:00,
2013-03-28 08:01:00,37.0,33.0,29.55,North,360,5.0,5.0,85,0.00,,,0.01,Rainwise IP-100,2013-03-28 12:01:00,
2013-03-28 08:06:00,38.0,33.0,29.54,North,360,3.0,9.0,82,0.00,,,0.01,Rainwise IP-100,2013-03-28 12:06:00,
2013-03-28 08:11:00,38.0,33.0,29.54,North,360,5.0,5.0,82,0.00,,,0.01,Rainwise IP-100,2013-03-28 12:11:00,
2013-03-28 08:16:00,39.0,33.0,29.55,NE,45,7.0,8.0,78,0.00,,,0.01,Rainwise IP-100,2013-03-28 12:16:00,
2013-03-28 08:21:00,39.0,33.0,29.55,North,360,6.0,8.0,78,0.00,,,0.01,Rainwise IP-100,2013-03-28 12:21:00,
2013-03-28 08:26:00,39.0,32.0,29.56,North,360,8.0,9.0,77,0.00,,,0.01,Rainwise IP-100,2013-03-28 12:26:00,
2013-03-28 08:31:00,39.0,32.0,29.56,North,360,4.0,8.0,77,0.00,,,0.01,Rainwise IP-100,2013-03-28 12:31:00,
2013-03-28 08:36:00,39.0,33.0,29.56,North,360,4.0,9.0,78,0.00,,,0.01,Rainwise IP-100,2013-03-28 12:36:00,
2013-03-28 08:41:00,39.0,32.0,29.57,North,360,3.0,10.0,77,0.00,,,0.01,Rainwise IP-100,2013-03-28 12:41:00,
2013-03-28 08:46:00,39.0,33.0,29.57,North,360,3.0,6.0,78,0.00,,,0.01,Rainwise IP-100,2013-03-28 12:46:00,
2013-03-28 08:51:00,39.0,32.0,29.56,North,360,1.0,7.0,77,0.00,,,0.01,Rainwise IP-100,2013-03-28 12:51:00,
2013-03-28 08:56:00,39.0,33.0,29.56,North,360,6.0,6.0,78,0.00,,,0.01,Rainwise IP-100,2013-03-28 12:56:00,
2013-03-28 10:55:00,39.0,33.0,29.56,North,360,6.0,6.0,78,0.00,,,0.01,Rainwise IP-100,2013-03-28 14:55:00,
2013-03-28 10:56:00,44.0,33.0,29.60,East,90,2.0,6.0,67,0.00,,,0.01,Rainwise IP-100,2013-03-28 14:56:00,
2013-03-28 10:57:00,44.0,33.0,29.60,East,90,2.0,6.0,67,0.00,,,0.01,Rainwise IP-100,2013-03-28 14:57:00,
2013-03-28 11:18:00,45.0,35.0,29.60,North,360,3.0,0.0,66,0.00,,,0.01,Rainwise IP-100,2013-03-28 15:18:00,
2013-03-28 11:21:00,45.0,35.0,29.60,West,270,2.0,4.0,67,0.00,,,0.01,Rainwise IP-100,2013-03-28 15:21:00,
2013-03-28 11:26:00,46.0,35.0,29.60,NNE,22,6.0,7.0,64,0.00,,,0.01,Rainwise IP-100,2013-03-28 15:26:00,
2013-03-28 11:31:00,46.0,35.0,29.60,NE,45,4.0,7.0,64,0.00,,,0.01,Rainwise IP-100,2013-03-28 15:31:00,
2013-03-28 11:47:00,46.0,35.0,29.60,NE,45,4.0,7.0,64,0.00,,,0.01,Rainwise IP-100,2013-03-28 15:47:00,
2013-03-28 11:53:00,47.0,32.0,29.60,North,360,5.0,7.0,55,0.00,,,0.01,Rainwise IP-100,2013-03-28 15:53:00,
2013-03-28 13:09:00,47.0,33.0,29.59,NE,45,5.0,10.0,58,0.00,,,0.01,Rainwise IP-100,2013-03-28 17:09:00,
2013-03-28 13:11:00,47.0,33.0,29.59,North,360,4.0,10.0,58,0.00,,,0.01,Rainwise IP-100,2013-03-28 17:11:00,
2013-03-28 13:19:00,47.0,33.0,29.59,North,360,4.0,10.0,58,0.00,,,0.01,Rainwise IP-100,2013-03-28 17:19:00,
2013-03-28 15:20:00,48.0,33.0,29.57,North,360,3.0,5.0,55,0.00,,,0.01,Rainwise IP-100,2013-03-28 19:20:00,
2013-03-28 15:21:00,48.0,33.0,29.57,North,360,3.0,5.0,55,0.00,,,0.01,Rainwise IP-100,2013-03-28 19:21:00,
2013-03-28 17:36:00,48.0,33.0,29.57,North,360,3.0,4.0,55,0.00,,,0.01,Rainwise IP-100,2013-03-28 21:36:00,